Time,TemperatureF,DewpointF,PressureIn,WindDirection,WindDirectionDegrees,WindSpeedMPH,WindSpeedGustMPH,Humidity,HourlyPrecipIn,Conditions,Clouds,dailyrainin,SoftwareType,DateUTC
2013-02-21 00:01:00,36.0,32.0,29.97,SW,215,0.0,0.0,86,0.00,,,0.00,,2013-02-21 08:01:00,
2013-02-21 00:11:00,35.0,31.0,29.97,SW,215,0.0,0.0,86,0.00,,,0.00,,2013-02-21 08:11:00,
2013-02-21 00:21:00,35.0,31.0,29.97,SW,215,0.0,0.0,86,0.00,,,0.00,,2013-02-21 08:21:00,
2013-02-21 00:31:00,34.0,30.0,29.97,SW,215,0.0,0.0,86,0.00,,,0.00,,2013-02-21 08:31:00,
2013-02-21 00:41:00,34.0,30.0,29.97,SW,215,0.0,0.0,86,0.00,,,0.00,,2013-02-21 08:41:00,
2013-02-21 00:52:00,34.0,30.0,29.97,SW,215,0.0,0.0,86,0.00,,,0.00,,2013-02-21 08:52:00,
2013-02-21 01:01:00,34.0,30.0,29.97,SW,215,0.0,0.0,86,0.00,,,0.00,,2013-02-21 09:01:00,
2013-02-21 01:11:00,34.0,30.0,29.97,SW,215,0.0,0.0,86,0.00,,,0.00,,2013-02-21 09:11:00,
2013-02-21 01:22:00,34.0,31.0,29.98,SW,215,0.0,0.0,87,0.00,,,0.00,,2013-02-21 09:22:00,
2013-02-21 01:31:00,34.0,31.0,29.97,SW,215,0.0,0.0,88,0.00,,,0.00,,2013-02-21 09:31:00,
2013-02-21 01:41:00,34.0,31.0,29.98,SW,215,0.0,0.0,88,0.00,,,0.00,,2013-02-21 09:41:00,
2013-02-21 01:52:00,34.0,31.0,29.98,SW,215,0.0,0.0,88,0.00,,,0.00,,2013-02-21 09:52:00,
2013-02-21 02:01:00,34.0,31.0,30.00,SW,215,0.0,0.0,88,0.00,,,0.00,,2013-02-21 10:01:00,
2013-02-21 02:11:00,34.0,31.0,30.00,SW,215,0.0,0.0,88,0.00,,,0.00,,2013-02-21 10:11:00,
2013-02-21 02:21:00,34.0,31.0,30.00,SW,215,0.0,0.0,89,0.00,,,0.00,,2013-02-21 10:21:00,
2013-02-21 02:31:00,34.0,31.0,30.00,SW,215,0.0,0.0,89,0.00,,,0.00,,2013-02-21 10:31:00,
2013-02-21 02:41:00,34.0,31.0,30.00,SW,215,0.0,0.0,89,0.00,,,0.00,,2013-02-21 10:41:00,
2013-02-21 02:51:00,34.0,31.0,30.00,SW,215,0.0,0.0,89,0.00,,,0.00,,2013-02-21 10:51:00,
2013-02-21 03:00:00,34.0,31.0,30.00,SW,215,0.0,0.0,90,0.00,,,0.00,,2013-02-21 11:00:00,
2013-02-21 03:10:00,34.0,31.0,30.00,SW,215,0.0,0.0,90,0.00,,,0.00,,2013-02-21 11:10:00,
2013-02-21 03:21:00,35.0,32.0,30.00,SW,215,0.0,0.0,90,0.00,,,0.00,,2013-02-21 11:21:00,
2013-02-21 03:31:00,35.0,32.0,30.00,SW,215,0.0,0.0,90,0.01,,,0.01,,2013-02-21 11:31:00,
2013-02-21 03:41:00,35.0,32.0,30.00,SW,215,0.0,0.0,90,0.01,,,0.01,,2013-02-21 11:41:00,
2013-02-21 03:51:00,35.0,33.0,30.00,SSE,156,0.0,3.0,91,0.01,,,0.01,,2013-02-21 11:51:00,
2013-02-21 04:01:00,35.0,33.0,30.00,SSE,156,0.0,0.0,91,0.01,,,0.01,,2013-02-21 12:01:00,
2013-02-21 04:11:00,35.0,33.0,30.00,SSE,156,0.0,0.0,91,0.01,,,0.01,,2013-02-21 12:11:00,
2013-02-21 04:21:00,36.0,34.0,30.01,SSE,156,0.0,1.0,91,0.01,,,0.01,,2013-02-21 12:21:00,
2013-02-21 04:32:00,36.0,34.0,30.00,SW,218,0.0,3.0,92,0.00,,,0.01,,2013-02-21 12:32:00,
2013-02-21 04:42:00,36.0,34.0,30.01,SE,133,0.0,3.0,92,0.01,,,0.02,,2013-02-21 12:42:00,
2013-02-21 04:52:00,36.0,34.0,30.01,SE,133,0.0,3.0,92,0.01,,,0.02,,2013-02-21 12:52:00,
2013-02-21 05:01:00,37.0,35.0,30.01,SSE,161,2.0,7.0,93,0.01,,,0.02,,2013-02-21 13:01:00,
2013-02-21 05:11:00,37.0,35.0,30.01,SSE,161,2.0,7.0,93,0.01,,,0.02,,2013-02-21 13:11:00,
2013-02-21 05:22:00,37.0,35.0,30.02,South,170,3.0,12.0,93,0.01,,,0.02,,2013-02-21 13:22:00,
2013-02-21 05:31:00,38.0,36.0,30.02,South,180,2.0,6.0,93,0.01,,,0.02,,2013-02-21 13:31:00,
2013-02-21 05:41:00,38.0,36.0,30.02,South,180,2.0,6.0,93,0.01,,,0.02,,2013-02-21 13:41:00,
2013-02-21 05:52:00,38.0,36.0,30.03,WSW,237,1.0,6.0,93,0.00,,,0.02,,2013-02-21 13:52:00,
2013-02-21 06:01:00,38.0,36.0,30.03,SSW,205,2.0,4.0,93,0.00,,,0.02,,2013-02-21 14:01:00,
2013-02-21 06:11:00,38.0,36.0,30.03,SSW,205,2.0,4.0,93,0.00,,,0.02,,2013-02-21 14:11:00,
2013-02-21 06:21:00,38.0,36.0,30.03,SSW,202,1.0,5.0,93,0.00,,,0.02,,2013-02-21 14:21:00,
2013-02-21 06:31:00,38.0,36.0,30.03,South,188,0.0,5.0,93,0.00,,,0.02,,2013-02-21 14:31:00,
2013-02-21 06:41:00,38.0,36.0,30.03,SSW,206,1.0,6.0,92,0.00,,,0.02,,2013-02-21 14:41:00,
2013-02-21 06:52:00,38.0,36.0,30.03,SSW,206,1.0,6.0,92,0.00,,,0.02,,2013-02-21 14:52:00,
2013-02-21 07:01:00,38.0,36.0,30.03,SSE,161,0.0,5.0,92,0.00,,,0.02,,2013-02-21 15:01:00,
2013-02-21 07:12:00,38.0,36.0,30.03,SSE,161,0.0,5.0,92,0.00,,,0.02,,2013-02-21 15:12:00,
2013-02-21 07:21:00,38.0,36.0,30.03,WSW,239,1.0,6.0,91,0.00,,,0.02,,2013-02-21 15:21:00,
2013-02-21 07:31:00,38.0,36.0,30.03,South,175,0.0,4.0,91,0.00,,,0.02,,2013-02-21 15:31:00,
2013-02-21 07:41:00,38.0,36.0,30.03,South,175,0.0,4.0,91,0.00,,,0.02,,2013-02-21 15:41:00,
2013-02-21 07:52:00,38.0,35.0,30.04,South,177,2.0,6.0,90,0.00,,,0.02,,2013-02-21 15:52:00,
2013-02-21 08:01:00,38.0,35.0,30.05,SSE,153,2.0,7.0,89,0.00,,,0.02,,2013-02-21 16:01:00,
2013-02-21 08:12:00,38.0,35.0,30.05,SW,216,0.0,10.0,89,0.01,,,0.03,,2013-02-21 16:12:00,
2013-02-21 08:21:00,38.0,35.0,30.05,SW,216,0.0,10.0,89,0.01,,,0.03,,2013-02-21 16:21:00,
2013-02-21 08:31:00,38.0,35.0,30.05,SSW,194,2.0,5.0,89,0.01,,,0.03,,2013-02-21 16:31:00,
2013-02-21 08:41:00,38.0,35.0,30.04,SE,140,2.0,4.0,89,0.01,,,0.03,,2013-02-21 16:41:00,
2013-02-21 08:52:00,38.0,35.0,30.04,SE,140,2.0,4.0,89,0.01,,,0.03,,2013-02-21 16:52:00,
2013-02-21 09:01:00,38.0,35.0,30.04,South,188,0.0,5.0,89,0.01,,,0.03,,2013-02-21 17:01:00,
2013-02-21 09:11:00,38.0,35.0,30.04,South,173,1.0,5.0,89,0.00,,,0.03,,2013-02-21 17:11:00,
2013-02-21 09:21:00,38.0,35.0,30.04,South,173,1.0,5.0,89,0.00,,,0.03,,2013-02-21 17:21:00,
2013-02-21 09:32:00,38.0,35.0,30.04,South,170,0.0,3.0,90,0.00,,,0.03,,2013-02-21 17:32:00,
2013-02-21 09:41:00,38.0,35.0,30.04,South,170,0.0,3.0,90,0.00,,,0.03,,2013-02-21 17:41:00,
2013-02-21 09:52:00,38.0,35.0,30.05,SE,136,1.0,4.0,90,0.00,,,0.03,,2013-02-21 17:52:00,
2013-02-21 10:01:00,38.0,35.0,30.06,SSW,213,0.0,3.0,90,0.00,,,0.03,,2013-02-21 18:01:00,
2013-02-21 10:11:00,38.0,35.0,30.06,SSW,213,0.0,3.0,90,0.00,,,0.03,,2013-02-21 18:11:00,
2013-02-21 10:21:00,38.0,35.0,30.06,WSW,254,2.0,5.0,90,0.02,,,0.05,,2013-02-21 18:21:00,
2013-02-21 10:31:00,38.0,35.0,30.06,South,170,0.0,5.0,90,0.02,,,0.05,,2013-02-21 18:31:00,
2013-02-21 10:42:00,38.0,35.0,30.06,South,170,0.0,5.0,90,0.02,,,0.05,,2013-02-21 18:42:00,
2013-02-21 10:51:00,38.0,35.0,30.06,SSW,201,1.0,5.0,90,0.03,,,0.06,,2013-02-21 18:51:00,
2013-02-21 11:01:00,39.0,36.0,30.06,SE,141,1.0,3.0,90,0.04,,,0.07,,2013-02-21 19:01:00,
2013-02-21 11:11:00,39.0,36.0,30.06,SE,141,1.0,3.0,90,0.04,,,0.07,,2013-02-21 19:11:00,
2013-02-21 11:21:00,39.0,36.0,30.04,SW,217,2.0,6.0,90,0.03,,,0.08,,2013-02-21 19:21:00,
2013-02-21 11:31:00,39.0,37.0,30.04,South,178,2.0,11.0,91,0.03,,,0.08,,2013-02-21 19:31:00,
2013-02-21 11:41:00,39.0,37.0,30.04,South,178,2.0,11.0,91,0.03,,,0.08,,2013-02-21 19:41:00,
2013-02-21 11:52:00,39.0,37.0,30.05,SW,224,1.0,3.0,91,0.03,,,0.09,,2013-02-21 19:52:00,
2013-02-21 12:01:00,39.0,37.0,30.05,SSE,151,0.0,6.0,91,0.02,,,0.09,,2013-02-21 20:01:00,
2013-02-21 12:11:00,39.0,37.0,30.05,SW,229,2.0,6.0,91,0.02,,,0.10,,2013-02-21 20:11:00,
2013-02-21 12:21:00,39.0,37.0,30.05,SW,229,2.0,6.0,91,0.02,,,0.10,,2013-02-21 20:21:00,
2013-02-21 12:31:00,39.0,37.0,30.04,South,187,3.0,7.0,91,0.04,,,0.12,,2013-02-21 20:31:00,
2013-02-21 12:41:00,39.0,37.0,30.04,South,187,3.0,7.0,91,0.04,,,0.12,,2013-02-21 20:41:00,
2013-02-21 12:52:00,39.0,37.0,30.03,South,181,1.0,9.0,91,0.03,,,0.12,,2013-02-21 20:52:00,
2013-02-21 13:02:00,39.0,37.0,30.03,South,176,3.0,6.0,91,0.03,,,0.12,,2013-02-21 21:02:00,
2013-02-21 13:11:00,40.0,38.0,30.01,South,169,2.0,5.0,92,0.02,,,0.12,,2013-02-21 21:11:00,
2013-02-21 13:21:00,40.0,38.0,30.01,South,169,2.0,5.0,92,0.02,,,0.12,,2013-02-21 21:21:00,
2013-02-21 13:31:00,40.0,38.0,30.01,SSW,204,1.0,5.0,92,0.00,,,0.12,,2013-02-21 21:31:00,
2013-02-21 13:41:00,41.0,38.0,30.00,SE,145,1.0,7.0,89,0.00,,,0.12,,2013-02-21 21:41:00,
2013-02-21 13:52:00,41.0,38.0,30.00,SE,145,1.0,7.0,89,0.00,,,0.12,,2013-02-21 21:52:00,
2013-02-21 14:01:00,41.0,38.0,30.00,South,190,4.0,11.0,88,0.01,,,0.13,,2013-02-21 22:01:00,
2013-02-21 14:11:00,41.0,38.0,30.00,South,190,4.0,11.0,88,0.01,,,0.13,,2013-02-21 22:11:00,
2013-02-21 14:20:00,41.0,38.0,30.00,South,190,2.0,4.0,88,0.03,,,0.15,,2013-02-21 22:20:00,
2013-02-21 14:21:00,41.0,37.0,30.00,SSW,199,1.0,8.0,87,0.02,,,0.14,,2013-02-21 22:21:00,
2013-02-21 14:31:00,41.0,38.0,30.00,SSE,163,1.0,10.0,88,0.02,,,0.14,,2013-02-21 22:31:00,
2013-02-21 14:41:00,41.0,38.0,30.00,South,190,2.0,4.0,88,0.03,,,0.15,,2013-02-21 22:41:00,
2013-02-21 14:52:00,41.0,38.0,30.00,South,190,2.0,4.0,88,0.03,,,0.15,,2013-02-21 22:52:00,
2013-02-21 15:01:00,41.0,38.0,30.00,South,190,2.0,4.0,88,0.03,,,0.15,,2013-02-21 23:01:00,
2013-02-21 15:11:00,41.0,38.0,30.00,South,190,2.0,4.0,88,0.03,,,0.15,,2013-02-21 23:11:00,
2013-02-21 21:22:00,40.0,37.0,30.04,ESE,117,0.0,3.0,90,-99.99,,,-99.99,,2013-02-22 05:22:00,
2013-02-21 21:32:00,40.0,37.0,30.05,SSE,168,0.0,2.0,90,-99.99,,,-99.99,,2013-02-22 05:32:00,
2013-02-21 21:42:00,40.0,37.0,30.05,SSE,168,0.0,2.0,90,-99.99,,,-99.99,,2013-02-22 05:42:00,
2013-02-21 21:52:00,40.0,37.0,30.05,SSE,157,0.0,3.0,90,-99.99,,,-99.99,,2013-02-22 05:52:00,
2013-02-21 22:01:00,40.0,37.0,30.06,SE,134,0.0,5.0,90,-99.99,,,-99.99,,2013-02-22 06:01:00,
2013-02-21 22:11:00,40.0,37.0,30.06,SE,134,0.0,5.0,90,-99.99,,,-99.99,,2013-02-22 06:11:00,
2013-02-21 22:21:00,40.0,37.0,30.07,West,265,0.0,2.0,90,0.00,,,-99.99,,2013-02-22 06:21:00,
2013-02-21 22:31:00,40.0,37.0,30.07,West,265,0.0,1.0,90,0.00,,,-99.99,,2013-02-22 06:31:00,
2013-02-21 22:41:00,40.0,37.0,30.07,West,265,0.0,1.0,90,0.00,,,-99.99,,2013-02-22 06:41:00,
2013-02-21 22:52:00,40.0,37.0,30.06,South,184,1.0,4.0,90,0.00,,,-99.99,,2013-02-22 06:52:00,
2013-02-21 23:01:00,40.0,37.0,30.06,South,169,1.0,4.0,90,0.00,,,-99.99,,2013-02-22 07:01:00,
2013-02-21 23:11:00,40.0,37.0,30.06,SE,145,0.0,4.0,90,0.00,,,-99.99,,2013-02-22 07:11:00,
2013-02-21 23:21:00,40.0,37.0,30.06,SE,145,0.0,4.0,90,0.00,,,-99.99,,2013-02-22 07:21:00,
2013-02-21 23:31:00,40.0,37.0,30.05,SW,221,0.0,3.0,90,0.00,,,-99.99,,2013-02-22 07:31:00,
2013-02-21 23:42:00,40.0,37.0,30.05,South,170,0.0,4.0,90,0.00,,,-99.99,,2013-02-22 07:42:00,
2013-02-21 23:52:00,40.0,37.0,30.05,South,170,0.0,4.0,90,0.00,,,-99.99,,2013-02-22 07:52:00,